createdAt,value
2023-01-05T00:00:04.276Z,99831.34
2023-01-05T00:02:30.710Z,99820.44
2023-01-05T00:04:57.109Z,99840.34
2023-01-05T00:07:23.508Z,99841.25
2023-01-05T00:09:49.833Z,99824.31
2023-01-05T00:12:35.016Z,99823.94
2023-01-05T00:15:20.232Z,99822.84
2023-01-05T00:18:05.116Z,99821.66
2023-01-05T00:20:50.379Z,99822.22
2023-01-05T00:23:16.684Z,99835.75
2023-01-05T00:25:42.985Z,99822.22
2023-01-05T00:28:09.285Z,99817.25
2023-01-05T00:30:35.591Z,99829.88
2023-01-05T00:33:01.914Z,99817.87
2023-01-05T00:35:28.233Z,99816.91
2023-01-05T00:37:54.531Z,99817.72
2023-01-05T00:40:20.920Z,99828.78
2023-01-05T00:42:47.594Z,99827.81
2023-01-05T00:45:13.907Z,99833.22
2023-01-05T00:47:40.233Z,99818.87
2023-01-05T00:50:06.583Z,99830.06
2023-01-05T00:52:32.897Z,99831.84
2023-01-05T00:54:59.235Z,99830.97
2023-01-05T00:57:25.621Z,99826.81
2023-01-05T00:59:51.942Z,99838.09
2023-01-05T01:02:18.425Z,99834.91
2023-01-05T01:04:44.905Z,99830.97
2023-01-05T01:07:11.236Z,99831.50
2023-01-05T01:09:37.616Z,99821.97
2023-01-05T01:12:03.935Z,99819.97
2023-01-05T01:14:30.244Z,99831.59
2023-01-05T01:16:56.657Z,99842.25
2023-01-05T01:19:22.983Z,99825.75
2023-01-05T01:21:49.301Z,99828.91
2023-01-05T01:24:15.603Z,99832.03
2023-01-05T01:26:41.902Z,99815.22
2023-01-05T01:29:08.217Z,99848.00
2023-01-05T01:31:35.660Z,99822.47
2023-01-05T01:34:01.977Z,99824.47
2023-01-05T01:36:28.294Z,99829.62
2023-01-05T01:38:54.610Z,99817.91
2023-01-05T01:41:20.938Z,99813.50
2023-01-05T01:43:47.270Z,99823.59
2023-01-05T01:46:13.679Z,99828.28
2023-01-05T01:48:40.083Z,99827.09
2023-01-05T01:51:08.319Z,99817.34
2023-01-05T01:53:34.849Z,99834.50
2023-01-05T01:56:01.173Z,99823.75
2023-01-05T01:58:27.555Z,99834.94
2023-01-05T02:00:53.915Z,99834.22
2023-01-05T02:03:20.284Z,99837.81
2023-01-05T02:05:46.579Z,99831.44
2023-01-05T02:08:13.376Z,99835.75
2023-01-05T02:10:40.323Z,99840.25
2023-01-05T02:13:06.628Z,99831.06
2023-01-05T02:15:32.930Z,99831.16
2023-01-05T02:17:59.255Z,99835.13
2023-01-05T02:20:25.838Z,99841.53
2023-01-05T02:22:52.168Z,99833.16
2023-01-05T02:25:18.518Z,99811.50
2023-01-05T02:27:44.816Z,99828.63
2023-01-05T02:30:11.130Z,99807.34
2023-01-05T02:32:37.450Z,99802.91
2023-01-05T02:35:03.763Z,99791.50
2023-01-05T02:37:30.073Z,99801.03
2023-01-05T02:39:56.409Z,99799.50
2023-01-05T02:42:22.731Z,99812.28
2023-01-05T02:44:49.107Z,99817.28
2023-01-05T02:47:15.449Z,99823.84
2023-01-05T02:49:41.765Z,99811.13
2023-01-05T02:52:08.096Z,99818.41
2023-01-05T02:54:34.632Z,99817.97
2023-01-05T02:57:00.931Z,99807.97
2023-01-05T02:59:27.227Z,99796.59
2023-01-05T03:01:53.622Z,99805.19
2023-01-05T03:04:19.997Z,99806.97
2023-01-05T03:06:49.308Z,99794.38
2023-01-05T03:09:15.922Z,99792.12
2023-01-05T03:12:01.080Z,99795.63
2023-01-05T03:14:27.426Z,99793.38
2023-01-05T03:16:53.764Z,99792.28
2023-01-05T03:19:39.118Z,99789.75
2023-01-05T03:22:24.121Z,99782.81
2023-01-05T03:25:09.097Z,99791.72
2023-01-05T03:27:54.038Z,99797.06
2023-01-05T03:30:39.082Z,99798.50
2023-01-05T03:33:24.201Z,99803.37
2023-01-05T03:35:50.602Z,99793.63
2023-01-05T03:38:18.564Z,99798.50
2023-01-05T03:40:45.770Z,99792.06
2023-01-05T03:43:12.110Z,99797.94
2023-01-05T03:45:38.432Z,99803.00
2023-01-05T03:48:04.774Z,99805.19
2023-01-05T03:50:31.119Z,99802.81
2023-01-05T03:52:57.474Z,99799.31
2023-01-05T03:55:23.820Z,99793.34
2023-01-05T03:57:50.176Z,99796.53
2023-01-05T04:00:16.512Z,99810.84
2023-01-05T04:02:43.178Z,99795.34
2023-01-05T04:05:09.801Z,99801.38
2023-01-05T04:07:36.176Z,99796.94
2023-01-05T04:10:02.494Z,99802.25
2023-01-05T04:12:28.850Z,99805.88
2023-01-05T04:14:55.168Z,99804.53
2023-01-05T04:17:21.497Z,99812.28
2023-01-05T04:19:47.848Z,99810.06
2023-01-05T04:22:14.179Z,99814.94
2023-01-05T04:24:40.482Z,99815.91
2023-01-05T04:27:06.792Z,99844.12
2023-01-05T04:29:33.094Z,99833.78
2023-01-05T04:31:59.458Z,99839.03
2023-01-05T04:34:25.783Z,99854.91
2023-01-05T04:36:52.177Z,99849.13
2023-01-05T04:39:18.504Z,99851.38
2023-01-05T04:41:44.842Z,99854.50
2023-01-05T04:44:11.148Z,99853.25
2023-01-05T04:46:37.502Z,99844.88
2023-01-05T04:49:03.836Z,99853.69
2023-01-05T04:51:30.185Z,99853.16
2023-01-05T04:53:56.502Z,99850.47
2023-01-05T04:56:22.812Z,99869.69
2023-01-05T04:58:49.135Z,99857.41
2023-01-05T05:01:15.646Z,99867.41
2023-01-05T05:03:42.116Z,99877.75
2023-01-05T05:06:08.492Z,99874.78
2023-01-05T05:08:34.835Z,99888.84
2023-01-05T05:11:01.169Z,99878.66
2023-01-05T05:13:27.598Z,99881.44
2023-01-05T05:15:54.014Z,99877.34
2023-01-05T05:18:22.226Z,99885.66
2023-01-05T05:20:49.056Z,99881.31
2023-01-05T05:23:15.404Z,99875.75
2023-01-05T05:25:41.786Z,99881.44
2023-01-05T05:28:08.128Z,99887.47
2023-01-05T05:30:34.434Z,99889.66
2023-01-05T05:33:00.779Z,99893.28
2023-01-05T05:35:27.181Z,99896.31
2023-01-05T05:37:56.574Z,99886.66
2023-01-05T05:40:23.301Z,99895.50
2023-01-05T05:42:49.617Z,99905.41
2023-01-05T05:45:15.942Z,99904.28
2023-01-05T05:47:42.265Z,99915.09
2023-01-05T05:50:08.598Z,99910.13
2023-01-05T05:52:34.927Z,99920.59
2023-01-05T05:55:01.833Z,99926.06
2023-01-05T05:57:28.217Z,99927.34
2023-01-05T05:59:54.553Z,99921.69
2023-01-05T06:02:20.966Z,99918.19
2023-01-05T06:04:47.339Z,99917.28
2023-01-05T06:07:13.695Z,99914.78
2023-01-05T06:09:40.031Z,99896.53
2023-01-05T06:12:06.365Z,99901.75
2023-01-05T06:14:32.913Z,99897.81
2023-01-05T06:16:59.326Z,99896.41
2023-01-05T06:19:25.620Z,99917.56
2023-01-05T06:21:51.977Z,99908.84
2023-01-05T06:24:18.294Z,99912.00
2023-01-05T06:26:45.728Z,99902.06
2023-01-05T06:29:12.261Z,99905.12
2023-01-05T06:31:38.736Z,99918.38
2023-01-05T06:34:05.153Z,99924.22
2023-01-05T06:36:31.526Z,99908.72
2023-01-05T06:38:57.927Z,99924.66
2023-01-05T06:41:24.316Z,99940.72
2023-01-05T06:43:50.685Z,99938.28
2023-01-05T06:46:17.068Z,99933.16
2023-01-05T06:48:43.413Z,99940.81
2023-01-05T06:51:09.747Z,99940.22
2023-01-05T06:53:36.092Z,99941.09
2023-01-05T06:56:02.432Z,99945.84
2023-01-05T06:58:28.761Z,99954.56
2023-01-05T07:00:55.213Z,99952.56
2023-01-05T07:03:23.974Z,99957.34
2023-01-05T07:05:50.330Z,99955.72
2023-01-05T07:08:16.637Z,99951.44
2023-01-05T07:10:42.956Z,99958.53
2023-01-05T07:13:09.344Z,99956.91
2023-01-05T07:15:35.672Z,99975.38
2023-01-05T07:18:02.005Z,99973.88
2023-01-05T07:20:28.391Z,99963.16
2023-01-05T07:22:54.723Z,99966.41
2023-01-05T07:25:21.025Z,99971.53
2023-01-05T07:27:47.345Z,99995.00
2023-01-05T07:30:13.666Z,99971.78
2023-01-05T07:32:39.967Z,99994.00
2023-01-05T07:35:06.346Z,100004.09
2023-01-05T07:37:32.689Z,99994.19
2023-01-05T07:39:59.007Z,100024.47
2023-01-05T07:42:26.219Z,100000.16
2023-01-05T07:44:52.595Z,99997.72
2023-01-05T07:47:18.945Z,99989.34
2023-01-05T07:49:45.845Z,100001.06
2023-01-05T07:52:12.190Z,100007.47
2023-01-05T07:54:38.513Z,99999.09
2023-01-05T07:57:04.839Z,100006.66
2023-01-05T07:59:31.250Z,100020.72
2023-01-05T08:01:58.624Z,100009.84
2023-01-05T08:04:25.126Z,100039.09
2023-01-05T08:06:52.638Z,100012.31
2023-01-05T08:09:37.671Z,100030.75
2023-01-05T08:12:04.018Z,100028.56
2023-01-05T08:14:30.337Z,100042.06
2023-01-05T08:16:56.703Z,100034.66
2023-01-05T08:19:23.080Z,100033.69
2023-01-05T08:21:49.411Z,100037.28
2023-01-05T08:24:15.709Z,100055.31
2023-01-05T08:26:42.072Z,100031.53
2023-01-05T08:29:08.393Z,100029.34
2023-01-05T08:31:37.727Z,100054.66
2023-01-05T08:34:04.334Z,100057.91
2023-01-05T08:36:33.858Z,100064.06
2023-01-05T08:39:01.716Z,100066.03
2023-01-05T08:41:28.629Z,100064.88
2023-01-05T08:43:54.964Z,100077.44
2023-01-05T08:46:21.352Z,100080.03
2023-01-05T08:48:47.687Z,100083.94
2023-01-05T08:51:13.988Z,100098.00
2023-01-05T08:53:40.330Z,100082.31
2023-01-05T08:56:06.676Z,100085.19
2023-01-05T08:58:33.023Z,100093.28
2023-01-05T09:00:59.475Z,100084.16
2023-01-05T09:03:25.972Z,100095.53
2023-01-05T09:05:52.376Z,100112.41
2023-01-05T09:08:18.696Z,100094.47
2023-01-05T09:10:45.049Z,100108.19
2023-01-05T09:13:12.115Z,100106.34
2023-01-05T09:15:38.488Z,100107.00
2023-01-05T09:18:04.919Z,100106.34
2023-01-05T09:20:37.743Z,100101.00
2023-01-05T09:23:06.015Z,100117.78
2023-01-05T09:25:32.325Z,100127.16
2023-01-05T09:27:58.731Z,100121.94
2023-01-05T09:30:25.054Z,100111.91
2023-01-05T09:32:51.371Z,100122.75
2023-01-05T09:35:17.765Z,100131.72
2023-01-05T09:37:44.138Z,100139.16
2023-01-05T09:40:10.461Z,100130.25
2023-01-05T09:42:36.889Z,100136.97
2023-01-05T09:45:03.353Z,100133.38
2023-01-05T09:47:29.661Z,100137.66
2023-01-05T09:49:56.010Z,100153.38
2023-01-05T09:52:22.373Z,100144.22
2023-01-05T09:54:48.717Z,100142.72
2023-01-05T09:57:15.072Z,100130.41
2023-01-05T09:59:41.447Z,100131.94
2023-01-05T10:02:07.818Z,100133.78
2023-01-05T10:04:34.255Z,100129.97
2023-01-05T10:07:00.639Z,100130.06
2023-01-05T10:09:26.946Z,100141.25
2023-01-05T10:12:12.249Z,100149.25
2023-01-05T10:14:38.580Z,100145.97
2023-01-05T10:17:39.182Z,100152.34
2023-01-05T10:19:51.301Z,100152.13
2023-01-05T10:22:17.725Z,100151.88
2023-01-05T10:24:44.077Z,100131.69
2023-01-05T10:27:26.827Z,100151.06
2023-01-05T10:29:53.354Z,100141.09
2023-01-05T10:32:19.658Z,100154.81
2023-01-05T10:34:45.955Z,100143.19
2023-01-05T10:37:12.260Z,100137.28
2023-01-05T10:39:38.611Z,100160.44
2023-01-05T10:42:04.935Z,100154.19
2023-01-05T10:44:31.385Z,100153.00
2023-01-05T10:46:57.776Z,100152.06
2023-01-05T10:49:24.127Z,100165.87
2023-01-05T10:51:56.343Z,100173.78
2023-01-05T10:54:23.252Z,100151.47
2023-01-05T10:56:49.573Z,100156.19
2023-01-05T10:59:16.011Z,100167.97
2023-01-05T11:01:42.438Z,100160.28
2023-01-05T11:06:55.280Z,100163.13
2023-01-05T11:09:22.517Z,100204.66
2023-01-05T11:11:49.104Z,100188.41
2023-01-05T11:14:15.439Z,100176.22
2023-01-05T11:16:41.768Z,100186.25
2023-01-05T11:19:08.109Z,100168.22
2023-01-05T11:21:34.429Z,100183.91
2023-01-05T11:24:00.767Z,100180.44
2023-01-05T11:26:27.178Z,100182.53
2023-01-05T11:28:53.502Z,100186.63
2023-01-05T11:31:19.927Z,100170.59
2023-01-05T11:33:46.269Z,100188.38
2023-01-05T11:36:12.592Z,100183.69
2023-01-05T11:38:38.990Z,100188.47
2023-01-05T11:41:05.449Z,100186.97
2023-01-05T11:43:31.760Z,100186.63
2023-01-05T11:45:58.188Z,100203.88
2023-01-05T11:48:24.603Z,100191.28
2023-01-05T11:50:51.005Z,100195.25
2023-01-05T11:53:17.364Z,100199.72
2023-01-05T11:55:43.732Z,100200.53
2023-01-05T11:58:10.071Z,100194.75
2023-01-05T12:00:36.433Z,100202.00
2023-01-05T12:03:03.203Z,100199.28
2023-01-05T12:05:30.616Z,100202.19
2023-01-05T12:07:56.921Z,100201.94
2023-01-05T12:10:23.249Z,100202.19
2023-01-05T12:12:49.640Z,100210.53
2023-01-05T12:15:16.052Z,100206.56
2023-01-05T12:17:42.370Z,100200.53
2023-01-05T12:20:08.721Z,100204.84
2023-01-05T12:22:35.053Z,100208.75
2023-01-05T12:25:04.985Z,100202.84
2023-01-05T12:27:31.307Z,100205.88
2023-01-05T12:35:30.209Z,100219.00
2023-01-05T12:37:56.548Z,100218.66
2023-01-05T12:40:22.858Z,100215.97
2023-01-05T12:42:49.170Z,100223.44
2023-01-05T12:45:15.494Z,100224.72
2023-01-05T12:47:41.838Z,100229.50
2023-01-05T12:50:08.153Z,100223.63
2023-01-05T12:52:34.502Z,100213.06
2023-01-05T12:55:00.860Z,100238.22
2023-01-05T12:57:27.208Z,100219.22
2023-01-05T12:59:53.526Z,100234.47
2023-01-05T13:02:21.226Z,100242.84
2023-01-05T13:04:50.453Z,100245.75
2023-01-05T13:07:20.717Z,100245.03
2023-01-05T13:09:47.020Z,100257.09
2023-01-05T13:12:13.696Z,100260.09
2023-01-05T13:14:41.982Z,100255.41
2023-01-05T13:17:08.324Z,100253.69
2023-01-05T13:19:34.672Z,100255.84
2023-01-05T13:22:00.994Z,100259.38
2023-01-05T13:24:28.346Z,100273.31
2023-01-05T13:26:54.684Z,100275.69
2023-01-05T13:29:20.990Z,100271.94
2023-01-05T13:31:47.372Z,100278.97
2023-01-05T13:34:13.685Z,100265.00
2023-01-05T13:36:40.056Z,100273.16
2023-01-05T13:39:06.503Z,100284.66
2023-01-05T13:41:32.817Z,100277.19
2023-01-05T13:43:59.139Z,100279.19
2023-01-05T13:46:26.926Z,100302.53
2023-01-05T13:49:03.292Z,100293.06
2023-01-05T13:51:34.019Z,100297.44
2023-01-05T13:54:00.353Z,100304.91
2023-01-05T13:56:26.658Z,100308.84
2023-01-05T13:58:53.022Z,100318.19
2023-01-05T14:01:19.622Z,100328.84
2023-01-05T14:03:45.996Z,100342.59
2023-01-05T14:06:12.327Z,100339.94
2023-01-05T14:08:38.644Z,100332.84
2023-01-05T14:11:05.034Z,100349.25
2023-01-05T14:13:31.376Z,100350.28
2023-01-05T14:15:57.729Z,100356.66
2023-01-05T14:18:24.043Z,100365.72
2023-01-05T14:20:51.407Z,100368.38
2023-01-05T14:23:17.748Z,100383.94
2023-01-05T14:25:44.141Z,100390.03
2023-01-05T14:28:10.443Z,100416.91
2023-01-05T14:30:36.763Z,100413.50
2023-01-05T14:33:03.085Z,100419.69
2023-01-05T14:35:29.785Z,100412.03
2023-01-05T14:37:56.226Z,100433.16
2023-01-05T14:40:22.621Z,100440.06
2023-01-05T14:42:49.022Z,100440.69
2023-01-05T14:45:15.334Z,100442.66
2023-01-05T14:47:41.737Z,100439.88
2023-01-05T14:50:08.124Z,100447.75
2023-01-05T14:52:34.424Z,100449.22
2023-01-05T14:55:07.072Z,100458.88
2023-01-05T14:57:45.645Z,100446.94
2023-01-05T15:00:11.969Z,100464.91
2023-01-05T15:02:38.305Z,100472.28
2023-01-05T15:05:05.165Z,100472.28
2023-01-05T15:07:31.473Z,100490.78
2023-01-05T15:09:57.935Z,100495.53
2023-01-05T15:12:27.940Z,100497.94
2023-01-05T15:14:54.271Z,100505.50
2023-01-05T15:17:20.570Z,100503.50
2023-01-05T15:19:46.859Z,100494.69
2023-01-05T15:22:36.232Z,100514.00
2023-01-05T15:24:59.461Z,100510.28
2023-01-05T15:27:25.950Z,100501.25
2023-01-05T15:29:52.349Z,100503.38
2023-01-05T15:32:18.689Z,100507.13
2023-01-05T15:34:45.010Z,100515.66
2023-01-05T15:37:11.336Z,100513.06
2023-01-05T15:39:37.719Z,100512.06
2023-01-05T15:42:04.065Z,100516.16
2023-01-05T15:44:30.655Z,100520.56
2023-01-05T15:46:56.996Z,100517.81
2023-01-05T15:49:23.325Z,100522.53
2023-01-05T15:51:49.810Z,100533.66
2023-01-05T15:54:16.124Z,100535.28
2023-01-05T15:56:42.450Z,100530.41
2023-01-05T15:59:08.759Z,100536.78
2023-01-05T16:01:35.121Z,100537.41
2023-01-05T16:04:01.449Z,100543.13
2023-01-05T16:06:30.918Z,100545.09
2023-01-05T16:08:57.233Z,100542.50
2023-01-05T16:11:23.570Z,100543.81
2023-01-05T16:13:49.907Z,100555.75
2023-01-05T16:16:43.392Z,100568.03
2023-01-05T16:19:02.615Z,100556.22
2023-01-05T16:21:28.936Z,100568.16
2023-01-05T16:23:55.272Z,100586.50
2023-01-05T16:26:21.581Z,100579.13
2023-01-05T16:28:48.033Z,100577.75
2023-01-05T16:31:14.366Z,100577.25
2023-01-05T16:33:40.745Z,100595.47
2023-01-05T16:36:07.088Z,100589.94
2023-01-05T16:38:33.396Z,100595.47
2023-01-05T16:40:59.709Z,100602.25
2023-01-05T16:43:26.024Z,100598.28
2023-01-05T16:45:52.383Z,100601.38
2023-01-05T16:48:18.693Z,100615.44
2023-01-05T16:50:45.009Z,100618.34
2023-01-05T16:53:11.327Z,100612.66
2023-01-05T16:55:37.667Z,100617.72
2023-01-05T16:58:03.984Z,100617.06
2023-01-05T17:00:30.353Z,100624.25
2023-01-05T17:02:56.750Z,100634.56
2023-01-05T17:05:23.124Z,100638.62
2023-01-05T17:07:49.485Z,100625.44
2023-01-05T17:12:46.941Z,100641.44
2023-01-05T17:15:13.342Z,100645.88
2023-01-05T17:17:39.669Z,100648.75
2023-01-05T17:20:06.465Z,100641.94
2023-01-05T17:22:32.782Z,100646.03
2023-01-05T17:27:25.430Z,100652.12
2023-01-05T17:29:53.208Z,100662.41
2023-01-05T17:32:19.722Z,100660.25
2023-01-05T17:34:46.076Z,100659.88
2023-01-05T17:37:12.680Z,100663.38
2023-01-05T17:39:39.026Z,100662.34
2023-01-05T17:42:24.238Z,100671.50
2023-01-05T17:44:51.998Z,100672.94
2023-01-05T17:47:18.482Z,100674.47
2023-01-05T17:49:44.814Z,100678.97
2023-01-05T17:52:12.660Z,100681.88
2023-01-05T17:54:41.876Z,100687.13
2023-01-05T17:59:34.532Z,100685.34
2023-01-05T18:02:00.919Z,100684.00
2023-01-05T18:04:28.674Z,100685.84
2023-01-05T18:06:55.217Z,100687.31
2023-01-05T18:11:48.799Z,100689.81
2023-01-05T18:14:16.457Z,100691.47
2023-01-05T18:16:46.465Z,100695.88
2023-01-05T18:21:39.428Z,100698.91
2023-01-05T18:24:05.754Z,100698.91
2023-01-05T18:26:32.148Z,100707.94
2023-01-05T18:28:58.443Z,100701.56
2023-01-05T18:31:25.938Z,100704.87
2023-01-05T18:33:52.250Z,100711.87
2023-01-05T18:36:18.572Z,100716.00
2023-01-05T18:38:44.986Z,100719.94
2023-01-05T18:41:11.305Z,100717.44
2023-01-05T18:43:37.640Z,100727.25
2023-01-05T18:46:04.041Z,100716.94
2023-01-05T18:48:30.435Z,100720.16
2023-01-05T18:50:56.769Z,100718.44
2023-01-05T18:53:23.123Z,100734.50
2023-01-05T18:55:49.458Z,100744.66
2023-01-05T18:58:15.780Z,100744.16
2023-01-05T19:00:42.123Z,100752.31
2023-01-05T19:03:08.453Z,100748.97
2023-01-05T19:05:34.758Z,100758.69
2023-01-05T19:08:01.078Z,100753.31
2023-01-05T19:10:27.444Z,100752.34
2023-01-05T19:12:53.778Z,100752.44
2023-01-05T19:15:20.108Z,100748.31
2023-01-05T19:17:46.427Z,100761.50
2023-01-05T19:20:12.775Z,100754.59
2023-01-05T19:22:40.101Z,100757.38
2023-01-05T19:25:07.163Z,100763.25
2023-01-05T19:27:33.652Z,100764.53
2023-01-05T19:29:59.962Z,100760.47
2023-01-05T19:32:26.334Z,100765.72
2023-01-05T19:34:52.654Z,100760.00
2023-01-05T19:37:18.988Z,100761.75
2023-01-05T19:39:45.299Z,100758.41
2023-01-05T19:42:11.642Z,100760.03
2023-01-05T19:44:37.949Z,100749.94
2023-01-05T19:47:04.364Z,100760.28
2023-01-05T19:49:30.797Z,100760.00
2023-01-05T19:51:57.158Z,100760.62
2023-01-05T19:54:25.375Z,100766.50
2023-01-05T19:56:52.044Z,100772.56
2023-01-05T19:59:18.382Z,100771.12
2023-01-05T20:01:44.775Z,100773.38
2023-01-05T20:04:11.187Z,100769.25
2023-01-05T20:06:37.695Z,100767.47
2023-01-05T20:09:05.005Z,100778.09
2023-01-05T20:11:40.907Z,100781.69
2023-01-05T20:14:08.670Z,100781.34
2023-01-05T20:16:36.103Z,100781.78
2023-01-05T20:19:02.465Z,100786.72
2023-01-05T20:21:28.855Z,100786.09
2023-01-05T20:23:55.205Z,100802.50
2023-01-05T20:26:21.569Z,100813.91
2023-01-05T20:28:47.967Z,100803.31
2023-01-05T20:31:14.310Z,100805.78
2023-01-05T20:33:40.641Z,100817.22
2023-01-05T20:36:06.951Z,100820.47
2023-01-05T20:38:33.832Z,100819.87
2023-01-05T20:41:00.137Z,100821.22
2023-01-05T20:43:26.577Z,100817.22
2023-01-05T20:45:52.899Z,100823.69
2023-01-05T20:48:19.240Z,100824.53
2023-01-05T20:50:46.418Z,100835.62
2023-01-05T20:53:12.741Z,100829.75
2023-01-05T20:55:40.086Z,100837.00
2023-01-05T20:58:06.417Z,100838.31
2023-01-05T21:00:32.963Z,100840.47
2023-01-05T21:02:59.360Z,100837.16
2023-01-05T21:05:25.689Z,100846.53
2023-01-05T21:07:51.989Z,100837.37
2023-01-05T21:10:18.399Z,100840.16
2023-01-05T21:12:44.736Z,100847.34
2023-01-05T21:15:11.062Z,100847.06
2023-01-05T21:17:37.470Z,100852.19
2023-01-05T21:20:03.924Z,100866.91
2023-01-05T21:22:30.231Z,100873.00
2023-01-05T21:24:56.571Z,100875.03
2023-01-05T21:27:22.891Z,100874.63
2023-01-05T21:29:49.214Z,100872.47
2023-01-05T21:32:15.533Z,100871.16
2023-01-05T21:34:41.855Z,100871.44
2023-01-05T21:37:08.193Z,100865.78
2023-01-05T21:39:34.608Z,100867.13
2023-01-05T21:42:19.775Z,100871.97
2023-01-05T21:44:46.102Z,100884.94
2023-01-05T21:47:13.017Z,100878.03
2023-01-05T21:49:39.370Z,100882.75
2023-01-05T21:52:24.630Z,100889.03
2023-01-05T21:55:09.819Z,100888.00
2023-01-05T21:57:36.291Z,100892.00
2023-01-05T22:00:02.663Z,100875.47
2023-01-05T22:02:29.807Z,100883.56
2023-01-05T22:04:56.110Z,100874.03
2023-01-05T22:07:22.474Z,100874.84
2023-01-05T22:09:48.808Z,100874.19
2023-01-05T22:12:15.146Z,100875.34
2023-01-05T22:14:41.527Z,100870.00
2023-01-05T22:17:07.878Z,100879.78
2023-01-05T22:19:34.190Z,100886.25
2023-01-05T22:22:00.510Z,100889.66
2023-01-05T22:24:26.856Z,100881.63
2023-01-05T22:26:53.151Z,100881.13
2023-01-05T22:29:19.477Z,100883.91
2023-01-05T22:31:45.999Z,100879.28
2023-01-05T22:34:12.357Z,100881.94
2023-01-05T22:36:39.067Z,100880.09
2023-01-05T22:39:05.418Z,100886.34
2023-01-05T22:41:31.894Z,100886.03
2023-01-05T22:43:58.246Z,100895.31
2023-01-05T22:46:24.664Z,100895.19
2023-01-05T22:48:51.055Z,100893.78
2023-01-05T22:51:17.378Z,100893.97
2023-01-05T22:53:43.806Z,100889.62
2023-01-05T22:56:10.143Z,100891.31
2023-01-05T22:58:36.451Z,100896.75
2023-01-05T23:01:02.767Z,100904.87
2023-01-05T23:03:29.106Z,100904.28
2023-01-05T23:05:55.412Z,100899.13
2023-01-05T23:08:21.734Z,100899.22
2023-01-05T23:10:48.058Z,100905.69
2023-01-05T23:13:14.410Z,100905.81
2023-01-05T23:15:40.873Z,100912.09
2023-01-05T23:18:07.202Z,100906.03
2023-01-05T23:20:33.537Z,100917.63
2023-01-05T23:22:59.862Z,100908.09
2023-01-05T23:25:26.173Z,100915.69
2023-01-05T23:27:53.073Z,100912.41
2023-01-05T23:30:19.415Z,100918.69
2023-01-05T23:32:45.749Z,100915.50
2023-01-05T23:35:12.220Z,100915.78
2023-01-05T23:37:38.602Z,100918.47
2023-01-05T23:40:04.965Z,100918.78
2023-01-05T23:42:43.560Z,100911.87
2023-01-05T23:45:09.914Z,100919.22
2023-01-05T23:47:36.223Z,100906.94
2023-01-05T23:50:02.540Z,100913.66
2023-01-05T23:52:28.852Z,100920.72
2023-01-05T23:54:55.367Z,100932.06
2023-01-05T23:57:21.886Z,100926.53
2023-01-05T23:59:48.207Z,100913.72
